sensor_id;sensor_type;location;lat;lon;timestamp;P1;durP1;ratioP1;P2;durP2;ratioP2
54937;SDS011;52756;52.826;6.214;2022-10-20T00:01:59;10.05;;;4.45;;
54937;SDS011;52756;52.826;6.214;2022-10-20T00:04:24;7.72;;;4.75;;
54937;SDS011;52756;52.826;6.214;2022-10-20T00:06:50;12.02;;;5.30;;
54937;SDS011;52756;52.826;6.214;2022-10-20T00:09:16;11.32;;;5.28;;
54937;SDS011;52756;52.826;6.214;2022-10-20T00:11:41;6.63;;;4.80;;
54937;SDS011;52756;52.826;6.214;2022-10-20T00:14:08;10.63;;;5.15;;
54937;SDS011;52756;52.826;6.214;2022-10-20T00:16:35;6.78;;;4.38;;
54937;SDS011;52756;52.826;6.214;2022-10-20T00:19:03;9.82;;;5.15;;
54937;SDS011;52756;52.826;6.214;2022-10-20T00:21:29;10.85;;;4.85;;
54937;SDS011;52756;52.826;6.214;2022-10-20T00:23:57;7.72;;;5.22;;
54937;SDS011;52756;52.826;6.214;2022-10-20T00:26:25;8.30;;;4.85;;
54937;SDS011;52756;52.826;6.214;2022-10-20T00:28:52;8.65;;;5.00;;
54937;SDS011;52756;52.826;6.214;2022-10-20T00:31:19;6.18;;;5.00;;
54937;SDS011;52756;52.826;6.214;2022-10-20T00:33:46;7.32;;;4.60;;
54937;SDS011;52756;52.826;6.214;2022-10-20T00:36:13;9.88;;;5.18;;
54937;SDS011;52756;52.826;6.214;2022-10-20T00:38:40;11.35;;;5.50;;
54937;SDS011;52756;52.826;6.214;2022-10-20T00:41:06;9.70;;;5.00;;
54937;SDS011;52756;52.826;6.214;2022-10-20T00:43:39;9.60;;;5.45;;
54937;SDS011;52756;52.826;6.214;2022-10-20T00:46:05;8.90;;;5.53;;
54937;SDS011;52756;52.826;6.214;2022-10-20T00:48:31;9.15;;;5.22;;
54937;SDS011;52756;52.826;6.214;2022-10-20T00:50:58;7.30;;;4.63;;
54937;SDS011;52756;52.826;6.214;2022-10-20T00:53:25;8.70;;;4.40;;
54937;SDS011;52756;52.826;6.214;2022-10-20T00:55:53;7.93;;;4.78;;
54937;SDS011;52756;52.826;6.214;2022-10-20T00:58:21;7.18;;;5.22;;
54937;SDS011;52756;52.826;6.214;2022-10-20T01:00:49;7.45;;;5.00;;
54937;SDS011;52756;52.826;6.214;2022-10-20T01:03:19;9.13;;;5.53;;
54937;SDS011;52756;52.826;6.214;2022-10-20T01:05:54;9.38;;;4.93;;
54937;SDS011;52756;52.826;6.214;2022-10-20T01:08:20;10.43;;;5.25;;
54937;SDS011;52756;52.826;6.214;2022-10-20T01:10:50;11.18;;;5.57;;
54937;SDS011;52756;52.826;6.214;2022-10-20T01:13:29;8.13;;;5.15;;
54937;SDS011;52756;52.826;6.214;2022-10-20T01:16:12;8.20;;;4.88;;
54937;SDS011;52756;52.826;6.214;2022-10-20T01:18:55;10.25;;;4.80;;
54937;SDS011;52756;52.826;6.214;2022-10-20T01:30:07;10.48;;;5.22;;
54937;SDS011;52756;52.826;6.214;2022-10-20T01:32:43;13.60;;;5.53;;
54937;SDS011;52756;52.826;6.214;2022-10-20T01:35:33;10.00;;;5.13;;
54937;SDS011;52756;52.826;6.214;2022-10-20T01:40:57;11.18;;;5.53;;
54937;SDS011;52756;52.826;6.214;2022-10-20T01:43:28;8.98;;;5.20;;
54937;SDS011;52756;52.826;6.214;2022-10-20T01:45:57;10.95;;;5.20;;
54937;SDS011;52756;52.826;6.214;2022-10-20T01:48:25;11.63;;;5.20;;
54937;SDS011;52756;52.826;6.214;2022-10-20T01:50:53;10.02;;;5.10;;
54937;SDS011;52756;52.826;6.214;2022-10-20T01:53:19;9.45;;;4.80;;
54937;SDS011;52756;52.826;6.214;2022-10-20T01:55:45;8.95;;;5.32;;
54937;SDS011;52756;52.826;6.214;2022-10-20T02:03:48;6.65;;;4.80;;
54937;SDS011;52756;52.826;6.214;2022-10-20T02:06:28;8.40;;;4.78;;
54937;SDS011;52756;52.826;6.214;2022-10-20T02:09:06;8.32;;;5.70;;
54937;SDS011;52756;52.826;6.214;2022-10-20T02:11:46;8.70;;;4.97;;
54937;SDS011;52756;52.826;6.214;2022-10-20T02:14:13;7.15;;;5.20;;
54937;SDS011;52756;52.826;6.214;2022-10-20T02:16:48;8.80;;;4.88;;
54937;SDS011;52756;52.826;6.214;2022-10-20T02:19:21;9.27;;;5.38;;
54937;SDS011;52756;52.826;6.214;2022-10-20T02:21:50;9.65;;;5.55;;
54937;SDS011;52756;52.826;6.214;2022-10-20T02:24:17;9.57;;;4.43;;
54937;SDS011;52756;52.826;6.214;2022-10-20T02:26:46;8.65;;;5.40;;
54937;SDS011;52756;52.826;6.214;2022-10-20T02:29:16;8.38;;;5.13;;
54937;SDS011;52756;52.826;6.214;2022-10-20T02:31:46;10.48;;;5.22;;
54937;SDS011;52756;52.826;6.214;2022-10-20T02:34:12;8.18;;;5.25;;
54937;SDS011;52756;52.826;6.214;2022-10-20T02:36:39;7.75;;;4.95;;
54937;SDS011;52756;52.826;6.214;2022-10-20T02:39:07;7.82;;;4.70;;
54937;SDS011;52756;52.826;6.214;2022-10-20T02:41:33;8.65;;;5.05;;
54937;SDS011;52756;52.826;6.214;2022-10-20T02:43:59;9.30;;;5.35;;
54937;SDS011;52756;52.826;6.214;2022-10-20T02:46:25;10.35;;;5.68;;
54937;SDS011;52756;52.826;6.214;2022-10-20T02:48:51;9.63;;;5.40;;
54937;SDS011;52756;52.826;6.214;2022-10-20T02:51:16;8.60;;;5.25;;
54937;SDS011;52756;52.826;6.214;2022-10-20T02:53:43;7.60;;;5.53;;
54937;SDS011;52756;52.826;6.214;2022-10-20T02:56:09;8.20;;;5.10;;
54937;SDS011;52756;52.826;6.214;2022-10-20T02:58:35;8.88;;;5.50;;
54937;SDS011;52756;52.826;6.214;2022-10-20T03:01:01;9.18;;;5.45;;
54937;SDS011;52756;52.826;6.214;2022-10-20T03:03:27;9.35;;;5.57;;
54937;SDS011;52756;52.826;6.214;2022-10-20T03:05:53;7.80;;;5.00;;
54937;SDS011;52756;52.826;6.214;2022-10-20T03:08:18;9.10;;;5.57;;
54937;SDS011;52756;52.826;6.214;2022-10-20T03:10:45;8.98;;;6.05;;
54937;SDS011;52756;52.826;6.214;2022-10-20T03:13:11;9.07;;;5.30;;
54937;SDS011;52756;52.826;6.214;2022-10-20T03:15:38;7.07;;;5.18;;
54937;SDS011;52756;52.826;6.214;2022-10-20T03:18:05;11.32;;;5.88;;
54937;SDS011;52756;52.826;6.214;2022-10-20T03:20:30;10.25;;;6.10;;
54937;SDS011;52756;52.826;6.214;2022-10-20T03:22:56;10.35;;;6.00;;
54937;SDS011;52756;52.826;6.214;2022-10-20T03:25:22;9.98;;;5.07;;
54937;SDS011;52756;52.826;6.214;2022-10-20T03:27:47;9.38;;;5.57;;
54937;SDS011;52756;52.826;6.214;2022-10-20T03:30:13;10.63;;;5.45;;
54937;SDS011;52756;52.826;6.214;2022-10-20T03:32:39;9.55;;;5.35;;
54937;SDS011;52756;52.826;6.214;2022-10-20T03:35:04;9.85;;;5.85;;
54937;SDS011;52756;52.826;6.214;2022-10-20T03:37:30;8.98;;;5.57;;
54937;SDS011;52756;52.826;6.214;2022-10-20T03:39:56;8.95;;;5.85;;
54937;SDS011;52756;52.826;6.214;2022-10-20T03:42:22;9.60;;;5.78;;
54937;SDS011;52756;52.826;6.214;2022-10-20T03:44:47;10.77;;;5.93;;
54937;SDS011;52756;52.826;6.214;2022-10-20T03:47:13;13.30;;;6.70;;
54937;SDS011;52756;52.826;6.214;2022-10-20T03:49:39;9.02;;;6.28;;
54937;SDS011;52756;52.826;6.214;2022-10-20T03:52:05;8.35;;;6.03;;
54937;SDS011;52756;52.826;6.214;2022-10-20T03:54:30;9.43;;;5.95;;
54937;SDS011;52756;52.826;6.214;2022-10-20T03:56:56;11.45;;;6.55;;
54937;SDS011;52756;52.826;6.214;2022-10-20T03:59:22;9.07;;;6.40;;
54937;SDS011;52756;52.826;6.214;2022-10-20T04:01:47;9.60;;;6.38;;
54937;SDS011;52756;52.826;6.214;2022-10-20T04:04:13;9.70;;;7.00;;
54937;SDS011;52756;52.826;6.214;2022-10-20T04:06:39;8.63;;;6.53;;
54937;SDS011;52756;52.826;6.214;2022-10-20T04:09:05;12.43;;;6.85;;
54937;SDS011;52756;52.826;6.214;2022-10-20T04:11:31;10.20;;;7.00;;
54937;SDS011;52756;52.826;6.214;2022-10-20T04:13:57;10.13;;;6.90;;
54937;SDS011;52756;52.826;6.214;2022-10-20T04:16:22;11.50;;;6.95;;
54937;SDS011;52756;52.826;6.214;2022-10-20T04:18:50;10.65;;;6.88;;
54937;SDS011;52756;52.826;6.214;2022-10-20T04:21:17;8.88;;;6.95;;
54937;SDS011;52756;52.826;6.214;2022-10-20T04:23:43;10.00;;;7.00;;
54937;SDS011;52756;52.826;6.214;2022-10-20T04:26:09;8.43;;;6.55;;
54937;SDS011;52756;52.826;6.214;2022-10-20T04:28:36;11.05;;;7.05;;
54937;SDS011;52756;52.826;6.214;2022-10-20T04:31:02;9.48;;;7.43;;
54937;SDS011;52756;52.826;6.214;2022-10-20T04:33:28;14.98;;;8.60;;
54937;SDS011;52756;52.826;6.214;2022-10-20T04:35:57;10.50;;;8.60;;
54937;SDS011;52756;52.826;6.214;2022-10-20T04:38:24;12.40;;;7.47;;
54937;SDS011;52756;52.826;6.214;2022-10-20T04:40:54;11.30;;;8.02;;
54937;SDS011;52756;52.826;6.214;2022-10-20T04:43:20;10.00;;;7.32;;
54937;SDS011;52756;52.826;6.214;2022-10-20T04:45:46;10.50;;;8.10;;
54937;SDS011;52756;52.826;6.214;2022-10-20T04:48:11;11.82;;;8.50;;
54937;SDS011;52756;52.826;6.214;2022-10-20T04:50:37;10.15;;;7.50;;
54937;SDS011;52756;52.826;6.214;2022-10-20T04:53:02;12.07;;;8.90;;
54937;SDS011;52756;52.826;6.214;2022-10-20T04:55:28;13.07;;;8.73;;
54937;SDS011;52756;52.826;6.214;2022-10-20T04:57:54;9.68;;;8.02;;
54937;SDS011;52756;52.826;6.214;2022-10-20T05:00:19;11.50;;;9.05;;
54937;SDS011;52756;52.826;6.214;2022-10-20T05:02:45;11.13;;;8.40;;
54937;SDS011;52756;52.826;6.214;2022-10-20T05:05:11;10.65;;;8.93;;
54937;SDS011;52756;52.826;6.214;2022-10-20T05:07:36;13.48;;;10.18;;
54937;SDS011;52756;52.826;6.214;2022-10-20T05:10:02;13.02;;;9.45;;
54937;SDS011;52756;52.826;6.214;2022-10-20T05:12:28;12.75;;;9.50;;
54937;SDS011;52756;52.826;6.214;2022-10-20T05:14:54;15.20;;;11.05;;
54937;SDS011;52756;52.826;6.214;2022-10-20T05:17:19;13.10;;;9.75;;
54937;SDS011;52756;52.826;6.214;2022-10-20T05:19:45;13.55;;;10.00;;
54937;SDS011;52756;52.826;6.214;2022-10-20T05:22:11;16.75;;;10.27;;
54937;SDS011;52756;52.826;6.214;2022-10-20T05:24:36;10.45;;;9.30;;
54937;SDS011;52756;52.826;6.214;2022-10-20T05:27:02;13.60;;;10.02;;
54937;SDS011;52756;52.826;6.214;2022-10-20T05:29:28;14.93;;;9.93;;
54937;SDS011;52756;52.826;6.214;2022-10-20T05:31:53;12.88;;;9.75;;
54937;SDS011;52756;52.826;6.214;2022-10-20T05:34:19;13.40;;;10.45;;
54937;SDS011;52756;52.826;6.214;2022-10-20T05:36:45;14.35;;;9.50;;
54937;SDS011;52756;52.826;6.214;2022-10-20T05:39:10;18.27;;;10.73;;
54937;SDS011;52756;52.826;6.214;2022-10-20T05:41:36;14.38;;;11.00;;
54937;SDS011;52756;52.826;6.214;2022-10-20T05:44:03;14.13;;;10.68;;
54937;SDS011;52756;52.826;6.214;2022-10-20T05:46:31;14.43;;;11.23;;
54937;SDS011;52756;52.826;6.214;2022-10-20T05:48:58;14.40;;;10.90;;
54937;SDS011;52756;52.826;6.214;2022-10-20T05:51:27;15.45;;;11.20;;
54937;SDS011;52756;52.826;6.214;2022-10-20T05:53:55;15.43;;;11.40;;
54937;SDS011;52756;52.826;6.214;2022-10-20T05:56:21;16.08;;;12.00;;
54937;SDS011;52756;52.826;6.214;2022-10-20T05:58:48;14.25;;;11.40;;
54937;SDS011;52756;52.826;6.214;2022-10-20T06:01:15;13.25;;;10.82;;
54937;SDS011;52756;52.826;6.214;2022-10-20T06:06:14;13.32;;;11.57;;
54937;SDS011;52756;52.826;6.214;2022-10-20T06:08:41;13.65;;;11.60;;
54937;SDS011;52756;52.826;6.214;2022-10-20T06:11:08;15.98;;;11.57;;
54937;SDS011;52756;52.826;6.214;2022-10-20T06:13:35;14.10;;;12.20;;
54937;SDS011;52756;52.826;6.214;2022-10-20T06:16:02;14.30;;;11.65;;
54937;SDS011;52756;52.826;6.214;2022-10-20T06:21:05;15.95;;;11.25;;
54937;SDS011;52756;52.826;6.214;2022-10-20T06:23:32;14.70;;;11.70;;
54937;SDS011;52756;52.826;6.214;2022-10-20T06:26:02;13.55;;;12.15;;
54937;SDS011;52756;52.826;6.214;2022-10-20T06:28:36;14.95;;;11.45;;
54937;SDS011;52756;52.826;6.214;2022-10-20T06:33:35;13.15;;;11.75;;
54937;SDS011;52756;52.826;6.214;2022-10-20T06:36:00;16.45;;;11.98;;
54937;SDS011;52756;52.826;6.214;2022-10-20T06:38:26;15.70;;;13.23;;
54937;SDS011;52756;52.826;6.214;2022-10-20T06:40:52;16.70;;;12.80;;
54937;SDS011;52756;52.826;6.214;2022-10-20T06:43:18;14.52;;;11.68;;
54937;SDS011;52756;52.826;6.214;2022-10-20T06:45:52;16.58;;;12.10;;
54937;SDS011;52756;52.826;6.214;2022-10-20T06:48:19;16.50;;;12.20;;
54937;SDS011;52756;52.826;6.214;2022-10-20T06:50:45;14.30;;;12.15;;
54937;SDS011;52756;52.826;6.214;2022-10-20T06:53:10;18.15;;;12.50;;
54937;SDS011;52756;52.826;6.214;2022-10-20T06:55:36;15.52;;;12.00;;
54937;SDS011;52756;52.826;6.214;2022-10-20T06:58:02;15.15;;;11.57;;
54937;SDS011;52756;52.826;6.214;2022-10-20T07:00:27;13.65;;;11.73;;
54937;SDS011;52756;52.826;6.214;2022-10-20T07:02:53;14.27;;;11.10;;
54937;SDS011;52756;52.826;6.214;2022-10-20T07:05:19;15.07;;;11.50;;
54937;SDS011;52756;52.826;6.214;2022-10-20T07:07:45;17.23;;;12.52;;
54937;SDS011;52756;52.826;6.214;2022-10-20T07:10:11;15.85;;;11.65;;
54937;SDS011;52756;52.826;6.214;2022-10-20T07:12:37;14.48;;;10.88;;
54937;SDS011;52756;52.826;6.214;2022-10-20T07:15:03;14.52;;;11.15;;
54937;SDS011;52756;52.826;6.214;2022-10-20T07:17:30;16.95;;;11.80;;
54937;SDS011;52756;52.826;6.214;2022-10-20T07:19:56;16.85;;;12.05;;
54937;SDS011;52756;52.826;6.214;2022-10-20T07:22:21;15.38;;;12.07;;
54937;SDS011;52756;52.826;6.214;2022-10-20T07:24:47;15.63;;;12.15;;
54937;SDS011;52756;52.826;6.214;2022-10-20T07:27:13;15.85;;;11.65;;
54937;SDS011;52756;52.826;6.214;2022-10-20T07:29:38;15.90;;;12.13;;
54937;SDS011;52756;52.826;6.214;2022-10-20T07:32:04;14.00;;;12.02;;
54937;SDS011;52756;52.826;6.214;2022-10-20T07:34:30;13.27;;;11.80;;
54937;SDS011;52756;52.826;6.214;2022-10-20T07:36:56;16.63;;;12.10;;
54937;SDS011;52756;52.826;6.214;2022-10-20T07:39:21;14.80;;;11.60;;
54937;SDS011;52756;52.826;6.214;2022-10-20T07:41:48;17.58;;;12.40;;
54937;SDS011;52756;52.826;6.214;2022-10-20T07:44:14;13.98;;;11.77;;
54937;SDS011;52756;52.826;6.214;2022-10-20T07:46:40;15.40;;;11.85;;
54937;SDS011;52756;52.826;6.214;2022-10-20T07:49:06;14.50;;;11.50;;
54937;SDS011;52756;52.826;6.214;2022-10-20T07:51:32;13.95;;;11.23;;
54937;SDS011;52756;52.826;6.214;2022-10-20T07:56:30;15.48;;;12.07;;
54937;SDS011;52756;52.826;6.214;2022-10-20T07:58:58;15.75;;;11.85;;
54937;SDS011;52756;52.826;6.214;2022-10-20T08:01:24;14.05;;;12.05;;
54937;SDS011;52756;52.826;6.214;2022-10-20T08:03:50;13.50;;;11.70;;
54937;SDS011;52756;52.826;6.214;2022-10-20T08:06:16;13.60;;;11.27;;
54937;SDS011;52756;52.826;6.214;2022-10-20T08:08:41;16.13;;;11.15;;
54937;SDS011;52756;52.826;6.214;2022-10-20T08:11:07;13.40;;;11.13;;
54937;SDS011;52756;52.826;6.214;2022-10-20T08:13:33;13.05;;;11.40;;
54937;SDS011;52756;52.826;6.214;2022-10-20T08:15:59;13.38;;;10.90;;
54937;SDS011;52756;52.826;6.214;2022-10-20T08:18:24;16.65;;;11.13;;
54937;SDS011;52756;52.826;6.214;2022-10-20T08:20:50;13.27;;;11.60;;
54937;SDS011;52756;52.826;6.214;2022-10-20T08:23:16;13.18;;;11.20;;
54937;SDS011;52756;52.826;6.214;2022-10-20T08:25:42;12.98;;;10.50;;
54937;SDS011;52756;52.826;6.214;2022-10-20T08:28:08;16.23;;;11.10;;
54937;SDS011;52756;52.826;6.214;2022-10-20T08:30:33;13.80;;;10.75;;
54937;SDS011;52756;52.826;6.214;2022-10-20T08:33:00;12.10;;;10.70;;
54937;SDS011;52756;52.826;6.214;2022-10-20T08:35:26;15.93;;;10.60;;
54937;SDS011;52756;52.826;6.214;2022-10-20T08:37:52;13.73;;;10.85;;
54937;SDS011;52756;52.826;6.214;2022-10-20T08:40:19;12.13;;;10.77;;
54937;SDS011;52756;52.826;6.214;2022-10-20T08:42:50;12.32;;;9.18;;
54937;SDS011;52756;52.826;6.214;2022-10-20T08:45:18;16.10;;;10.60;;
54937;SDS011;52756;52.826;6.214;2022-10-20T08:47:45;11.65;;;10.35;;
54937;SDS011;52756;52.826;6.214;2022-10-20T08:50:14;13.23;;;10.35;;
54937;SDS011;52756;52.826;6.214;2022-10-20T08:52:42;13.30;;;10.18;;
54937;SDS011;52756;52.826;6.214;2022-10-20T08:55:29;11.98;;;9.90;;
54937;SDS011;52756;52.826;6.214;2022-10-20T08:58:00;11.73;;;9.30;;
54937;SDS011;52756;52.826;6.214;2022-10-20T09:00:28;14.55;;;9.63;;
54937;SDS011;52756;52.826;6.214;2022-10-20T09:02:55;11.73;;;9.80;;
54937;SDS011;52756;52.826;6.214;2022-10-20T09:05:26;10.75;;;9.45;;
54937;SDS011;52756;52.826;6.214;2022-10-20T09:07:56;15.32;;;10.10;;
54937;SDS011;52756;52.826;6.214;2022-10-20T09:13:01;11.57;;;9.38;;
54937;SDS011;52756;52.826;6.214;2022-10-20T09:15:41;11.77;;;9.95;;
54937;SDS011;52756;52.826;6.214;2022-10-20T09:18:08;11.80;;;9.88;;
54937;SDS011;52756;52.826;6.214;2022-10-20T09:20:42;10.90;;;9.73;;
54937;SDS011;52756;52.826;6.214;2022-10-20T09:23:18;12.40;;;9.88;;
54937;SDS011;52756;52.826;6.214;2022-10-20T09:25:47;12.98;;;9.65;;
54937;SDS011;52756;52.826;6.214;2022-10-20T09:28:25;11.60;;;10.13;;
54937;SDS011;52756;52.826;6.214;2022-10-20T09:30:52;14.52;;;8.55;;
54937;SDS011;52756;52.826;6.214;2022-10-20T09:33:28;13.48;;;9.73;;
54937;SDS011;52756;52.826;6.214;2022-10-20T09:35:58;15.05;;;9.80;;
54937;SDS011;52756;52.826;6.214;2022-10-20T09:38:32;10.05;;;9.05;;
54937;SDS011;52756;52.826;6.214;2022-10-20T09:43:36;10.48;;;8.77;;
54937;SDS011;52756;52.826;6.214;2022-10-20T09:46:04;12.85;;;9.50;;
54937;SDS011;52756;52.826;6.214;2022-10-20T09:48:35;11.07;;;8.90;;
54937;SDS011;52756;52.826;6.214;2022-10-20T09:51:04;10.30;;;8.40;;
54937;SDS011;52756;52.826;6.214;2022-10-20T09:53:47;10.48;;;8.85;;
54937;SDS011;52756;52.826;6.214;2022-10-20T09:56:28;11.75;;;9.20;;
54937;SDS011;52756;52.826;6.214;2022-10-20T09:59:00;11.60;;;8.70;;
54937;SDS011;52756;52.826;6.214;2022-10-20T10:01:28;10.23;;;9.13;;
54937;SDS011;52756;52.826;6.214;2022-10-20T10:03:55;10.55;;;8.45;;
54937;SDS011;52756;52.826;6.214;2022-10-20T10:11:56;8.95;;;7.88;;
54937;SDS011;52756;52.826;6.214;2022-10-20T10:14:28;10.00;;;8.85;;
54937;SDS011;52756;52.826;6.214;2022-10-20T10:16:57;13.95;;;9.05;;
54937;SDS011;52756;52.826;6.214;2022-10-20T10:19:25;8.82;;;7.63;;
54937;SDS011;52756;52.826;6.214;2022-10-20T10:21:53;11.18;;;8.38;;
54937;SDS011;52756;52.826;6.214;2022-10-20T10:24:25;8.52;;;7.72;;
54937;SDS011;52756;52.826;6.214;2022-10-20T10:26:54;12.50;;;9.02;;
54937;SDS011;52756;52.826;6.214;2022-10-20T10:29:25;10.57;;;8.10;;
54937;SDS011;52756;52.826;6.214;2022-10-20T10:31:59;9.80;;;7.72;;
54937;SDS011;52756;52.826;6.214;2022-10-20T10:37:03;10.43;;;7.65;;
54937;SDS011;52756;52.826;6.214;2022-10-20T10:39:29;11.77;;;8.02;;
54937;SDS011;52756;52.826;6.214;2022-10-20T10:42:23;10.55;;;7.93;;
54937;SDS011;52756;52.826;6.214;2022-10-20T10:50:25;9.68;;;7.60;;
54937;SDS011;52756;52.826;6.214;2022-10-20T10:52:57;9.88;;;8.40;;
54937;SDS011;52756;52.826;6.214;2022-10-20T10:55:25;10.75;;;8.75;;
54937;SDS011;52756;52.826;6.214;2022-10-20T10:58:01;10.68;;;8.55;;
54937;SDS011;52756;52.826;6.214;2022-10-20T11:00:55;11.13;;;8.35;;
54937;SDS011;52756;52.826;6.214;2022-10-20T11:11:58;14.02;;;8.85;;
54937;SDS011;52756;52.826;6.214;2022-10-20T11:22:45;10.35;;;9.25;;
54937;SDS011;52756;52.826;6.214;2022-10-20T11:30:49;11.68;;;8.27;;
54937;SDS011;52756;52.826;6.214;2022-10-20T11:33:19;12.38;;;8.82;;
54937;SDS011;52756;52.826;6.214;2022-10-20T11:35:53;11.23;;;9.23;;
54937;SDS011;52756;52.826;6.214;2022-10-20T11:41:05;9.05;;;8.02;;
54937;SDS011;52756;52.826;6.214;2022-10-20T11:43:54;10.05;;;8.82;;
54937;SDS011;52756;52.826;6.214;2022-10-20T11:46:33;10.32;;;9.23;;
54937;SDS011;52756;52.826;6.214;2022-10-20T11:49:07;11.85;;;9.60;;
54937;SDS011;52756;52.826;6.214;2022-10-20T11:51:46;11.93;;;8.48;;
54937;SDS011;52756;52.826;6.214;2022-10-20T12:14:32;11.23;;;9.10;;
54937;SDS011;52756;52.826;6.214;2022-10-20T12:17:04;14.40;;;9.50;;
54937;SDS011;52756;52.826;6.214;2022-10-20T12:19:48;11.73;;;9.40;;
54937;SDS011;52756;52.826;6.214;2022-10-20T12:24:41;11.38;;;10.13;;
54937;SDS011;52756;52.826;6.214;2022-10-20T12:27:27;11.73;;;10.27;;
54937;SDS011;52756;52.826;6.214;2022-10-20T12:37:35;13.45;;;11.18;;
54937;SDS011;52756;52.826;6.214;2022-10-20T12:42:32;12.25;;;10.93;;
54937;SDS011;52756;52.826;6.214;2022-10-20T12:45:03;14.85;;;10.70;;
54937;SDS011;52756;52.826;6.214;2022-10-20T12:47:32;12.98;;;10.50;;
54937;SDS011;52756;52.826;6.214;2022-10-20T12:52:32;14.98;;;10.98;;
54937;SDS011;52756;52.826;6.214;2022-10-20T12:57:34;15.30;;;12.52;;
54937;SDS011;52756;52.826;6.214;2022-10-20T13:26:28;17.90;;;13.25;;
54937;SDS011;52756;52.826;6.214;2022-10-20T13:29:01;15.60;;;12.38;;
54937;SDS011;52756;52.826;6.214;2022-10-20T13:31:45;15.02;;;13.48;;
54937;SDS011;52756;52.826;6.214;2022-10-20T13:34:23;17.25;;;13.88;;
54937;SDS011;52756;52.826;6.214;2022-10-20T13:39:46;16.88;;;14.95;;
54937;SDS011;52756;52.826;6.214;2022-10-20T13:50:57;19.55;;;15.45;;
54937;SDS011;52756;52.826;6.214;2022-10-20T13:53:30;19.85;;;15.43;;
54937;SDS011;52756;52.826;6.214;2022-10-20T13:56:04;20.58;;;15.88;;
54937;SDS011;52756;52.826;6.214;2022-10-20T13:58:31;17.30;;;15.32;;
54937;SDS011;52756;52.826;6.214;2022-10-20T14:03:29;19.77;;;15.93;;
54937;SDS011;52756;52.826;6.214;2022-10-20T14:05:56;19.35;;;16.48;;
54937;SDS011;52756;52.826;6.214;2022-10-20T14:08:23;19.27;;;15.80;;
54937;SDS011;52756;52.826;6.214;2022-10-20T14:13:26;19.80;;;16.33;;
54937;SDS011;52756;52.826;6.214;2022-10-20T14:15:58;23.27;;;17.65;;
54937;SDS011;52756;52.826;6.214;2022-10-20T14:18:28;19.92;;;17.33;;
54937;SDS011;52756;52.826;6.214;2022-10-20T14:21:00;21.95;;;17.35;;
54937;SDS011;52756;52.826;6.214;2022-10-20T14:23:32;21.98;;;18.42;;
54937;SDS011;52756;52.826;6.214;2022-10-20T14:26:02;22.70;;;17.70;;
54937;SDS011;52756;52.826;6.214;2022-10-20T14:28:32;22.38;;;17.23;;
54937;SDS011;52756;52.826;6.214;2022-10-20T14:31:00;25.27;;;18.42;;
54937;SDS011;52756;52.826;6.214;2022-10-20T14:33:27;25.38;;;18.63;;
54937;SDS011;52756;52.826;6.214;2022-10-20T14:35:54;20.90;;;17.23;;
54937;SDS011;52756;52.826;6.214;2022-10-20T14:38:31;30.25;;;17.80;;
54937;SDS011;52756;52.826;6.214;2022-10-20T14:41:02;22.38;;;18.55;;
54937;SDS011;52756;52.826;6.214;2022-10-20T14:46:06;23.83;;;18.77;;
54937;SDS011;52756;52.826;6.214;2022-10-20T14:56:44;24.55;;;18.77;;
54937;SDS011;52756;52.826;6.214;2022-10-20T14:59:21;23.58;;;18.38;;
54937;SDS011;52756;52.826;6.214;2022-10-20T15:04:38;31.08;;;18.38;;
54937;SDS011;52756;52.826;6.214;2022-10-20T15:07:06;28.38;;;20.30;;
54937;SDS011;52756;52.826;6.214;2022-10-20T15:09:55;28.33;;;20.42;;
54937;SDS011;52756;52.826;6.214;2022-10-20T15:15:02;29.33;;;20.08;;
54937;SDS011;52756;52.826;6.214;2022-10-20T15:17:42;26.98;;;19.92;;
54937;SDS011;52756;52.826;6.214;2022-10-20T15:23:04;27.63;;;20.38;;
54937;SDS011;52756;52.826;6.214;2022-10-20T15:25:41;26.63;;;20.85;;
54937;SDS011;52756;52.826;6.214;2022-10-20T15:28:46;27.50;;;20.02;;
54937;SDS011;52756;52.826;6.214;2022-10-20T15:31:23;26.08;;;19.83;;
54937;SDS011;52756;52.826;6.214;2022-10-20T15:33:51;30.02;;;21.02;;
54937;SDS011;52756;52.826;6.214;2022-10-20T15:36:18;28.88;;;22.08;;
54937;SDS011;52756;52.826;6.214;2022-10-20T15:38:52;27.63;;;21.10;;
54937;SDS011;52756;52.826;6.214;2022-10-20T15:41:20;27.20;;;21.95;;
54937;SDS011;52756;52.826;6.214;2022-10-20T15:43:49;27.02;;;21.98;;
54937;SDS011;52756;52.826;6.214;2022-10-20T15:46:16;27.77;;;22.98;;
54937;SDS011;52756;52.826;6.214;2022-10-20T15:48:43;31.90;;;22.15;;
54937;SDS011;52756;52.826;6.214;2022-10-20T15:54:11;25.63;;;21.92;;
54937;SDS011;52756;52.826;6.214;2022-10-20T15:56:39;32.50;;;23.70;;
54937;SDS011;52756;52.826;6.214;2022-10-20T15:59:04;28.15;;;21.52;;
54937;SDS011;52756;52.826;6.214;2022-10-20T16:01:30;31.67;;;23.95;;
54937;SDS011;52756;52.826;6.214;2022-10-20T16:03:56;33.75;;;24.02;;
54937;SDS011;52756;52.826;6.214;2022-10-20T16:06:22;32.50;;;24.60;;
54937;SDS011;52756;52.826;6.214;2022-10-20T16:08:48;32.78;;;24.35;;
54937;SDS011;52756;52.826;6.214;2022-10-20T16:11:15;36.30;;;25.98;;
54937;SDS011;52756;52.826;6.214;2022-10-20T16:13:42;32.55;;;26.23;;
54937;SDS011;52756;52.826;6.214;2022-10-20T16:16:12;31.63;;;26.40;;
54937;SDS011;52756;52.826;6.214;2022-10-20T16:18:40;35.42;;;26.85;;
54937;SDS011;52756;52.826;6.214;2022-10-20T16:21:06;34.47;;;25.85;;
54937;SDS011;52756;52.826;6.214;2022-10-20T16:23:35;37.13;;;27.95;;
54937;SDS011;52756;52.826;6.214;2022-10-20T16:26:09;34.25;;;27.95;;
54937;SDS011;52756;52.826;6.214;2022-10-20T16:28:36;39.15;;;28.55;;
54937;SDS011;52756;52.826;6.214;2022-10-20T16:31:03;37.65;;;29.58;;
54937;SDS011;52756;52.826;6.214;2022-10-20T16:33:33;36.63;;;28.52;;
54937;SDS011;52756;52.826;6.214;2022-10-20T16:36:00;38.03;;;28.55;;
54937;SDS011;52756;52.826;6.214;2022-10-20T16:38:28;39.08;;;30.60;;
54937;SDS011;52756;52.826;6.214;2022-10-20T16:40:57;41.17;;;30.23;;
54937;SDS011;52756;52.826;6.214;2022-10-20T16:43:24;39.30;;;31.00;;
54937;SDS011;52756;52.826;6.214;2022-10-20T16:45:50;38.75;;;30.20;;
54937;SDS011;52756;52.826;6.214;2022-10-20T16:48:16;37.33;;;29.25;;
54937;SDS011;52756;52.826;6.214;2022-10-20T16:50:42;42.10;;;29.90;;
54937;SDS011;52756;52.826;6.214;2022-10-20T16:53:07;38.67;;;30.20;;
54937;SDS011;52756;52.826;6.214;2022-10-20T16:55:33;39.38;;;29.73;;
54937;SDS011;52756;52.826;6.214;2022-10-20T16:57:59;39.22;;;30.83;;
54937;SDS011;52756;52.826;6.214;2022-10-20T17:00:25;36.58;;;29.33;;
54937;SDS011;52756;52.826;6.214;2022-10-20T17:02:50;36.03;;;28.63;;
54937;SDS011;52756;52.826;6.214;2022-10-20T17:05:20;38.40;;;29.35;;
54937;SDS011;52756;52.826;6.214;2022-10-20T17:07:46;38.33;;;28.75;;
54937;SDS011;52756;52.826;6.214;2022-10-20T17:10:12;38.70;;;29.38;;
54937;SDS011;52756;52.826;6.214;2022-10-20T17:12:38;36.42;;;29.52;;
54937;SDS011;52756;52.826;6.214;2022-10-20T17:15:03;39.72;;;30.48;;
54937;SDS011;52756;52.826;6.214;2022-10-20T17:17:29;41.75;;;30.05;;
54937;SDS011;52756;52.826;6.214;2022-10-20T17:19:55;37.35;;;28.77;;
54937;SDS011;52756;52.826;6.214;2022-10-20T17:22:21;41.03;;;29.38;;
54937;SDS011;52756;52.826;6.214;2022-10-20T17:24:46;34.90;;;28.95;;
54937;SDS011;52756;52.826;6.214;2022-10-20T17:27:12;36.90;;;29.08;;
54937;SDS011;52756;52.826;6.214;2022-10-20T17:29:37;36.80;;;28.50;;
54937;SDS011;52756;52.826;6.214;2022-10-20T17:32:03;34.75;;;28.20;;
54937;SDS011;52756;52.826;6.214;2022-10-20T17:34:29;36.10;;;27.95;;